sensor_id;sensor_type;location;lat;lon;timestamp;temperature;humidity
54960;DHT22;40860;51.710;8.736;2024-01-15T00:01:20;1.10;99.90
54960;DHT22;40860;51.710;8.736;2024-01-15T00:05:23;1.20;99.90
54960;DHT22;40860;51.710;8.736;2024-01-15T00:09:29;1.20;99.90
54960;DHT22;40860;51.710;8.736;2024-01-15T00:13:32;1.20;99.90
54960;DHT22;40860;51.710;8.736;2024-01-15T00:17:35;1.20;99.90
54960;DHT22;40860;51.710;8.736;2024-01-15T00:21:38;1.20;99.90
54960;DHT22;40860;51.710;8.736;2024-01-15T00:25:42;1.20;99.90
54960;DHT22;40860;51.710;8.736;2024-01-15T00:29:45;1.20;99.90
54960;DHT22;40860;51.710;8.736;2024-01-15T00:33:48;1.20;99.90
54960;DHT22;40860;51.710;8.736;2024-01-15T00:37:51;1.20;99.90
54960;DHT22;40860;51.710;8.736;2024-01-15T00:41:55;1.20;99.90
54960;DHT22;40860;51.710;8.736;2024-01-15T00:45:58;1.20;99.90
54960;DHT22;40860;51.710;8.736;2024-01-15T00:50:01;1.20;99.90
54960;DHT22;40860;51.710;8.736;2024-01-15T00:54:04;1.20;99.90
54960;DHT22;40860;51.710;8.736;2024-01-15T00:58:08;1.20;99.90
54960;DHT22;40860;51.710;8.736;2024-01-15T01:02:11;1.20;99.90
54960;DHT22;40860;51.710;8.736;2024-01-15T01:06:14;1.20;99.90
54960;DHT22;40860;51.710;8.736;2024-01-15T01:10:17;1.30;99.90
54960;DHT22;40860;51.710;8.736;2024-01-15T01:14:24;1.20;99.90
54960;DHT22;40860;51.710;8.736;2024-01-15T01:18:27;1.20;99.90
54960;DHT22;40860;51.710;8.736;2024-01-15T01:22:30;1.30;99.90
54960;DHT22;40860;51.710;8.736;2024-01-15T01:26:33;1.30;99.90
54960;DHT22;40860;51.710;8.736;2024-01-15T01:30:37;1.30;99.90
54960;DHT22;40860;51.710;8.736;2024-01-15T01:34:41;1.30;99.90
54960;DHT22;40860;51.710;8.736;2024-01-15T01:38:45;1.30;99.90
54960;DHT22;40860;51.710;8.736;2024-01-15T01:42:48;1.30;99.90
54960;DHT22;40860;51.710;8.736;2024-01-15T01:46:52;1.30;99.90
54960;DHT22;40860;51.710;8.736;2024-01-15T01:50:59;1.30;99.90
54960;DHT22;40860;51.710;8.736;2024-01-15T01:55:04;1.30;99.90
54960;DHT22;40860;51.710;8.736;2024-01-15T01:59:08;1.30;99.90
54960;DHT22;40860;51.710;8.736;2024-01-15T02:03:14;1.30;99.90
54960;DHT22;40860;51.710;8.736;2024-01-15T02:07:19;1.30;99.90
54960;DHT22;40860;51.710;8.736;2024-01-15T02:11:22;1.30;99.90
54960;DHT22;40860;51.710;8.736;2024-01-15T02:15:25;1.20;99.90
54960;DHT22;40860;51.710;8.736;2024-01-15T02:19:30;1.20;99.90
54960;DHT22;40860;51.710;8.736;2024-01-15T02:23:48;1.20;99.90
54960;DHT22;40860;51.710;8.736;2024-01-15T02:27:51;1.20;99.90
54960;DHT22;40860;51.710;8.736;2024-01-15T02:31:54;1.30;99.90
54960;DHT22;40860;51.710;8.736;2024-01-15T02:35:57;1.30;99.90
54960;DHT22;40860;51.710;8.736;2024-01-15T02:40:01;1.30;99.90
54960;DHT22;40860;51.710;8.736;2024-01-15T02:44:05;1.30;99.90
54960;DHT22;40860;51.710;8.736;2024-01-15T02:48:07;1.30;99.90
54960;DHT22;40860;51.710;8.736;2024-01-15T02:52:10;1.30;99.90
54960;DHT22;40860;51.710;8.736;2024-01-15T02:56:15;1.30;99.90
54960;DHT22;40860;51.710;8.736;2024-01-15T03:00:18;1.30;99.90
54960;DHT22;40860;51.710;8.736;2024-01-15T03:04:20;1.30;99.90
54960;DHT22;40860;51.710;8.736;2024-01-15T03:08:23;1.40;99.90
54960;DHT22;40860;51.710;8.736;2024-01-15T03:12:27;1.40;99.90
54960;DHT22;40860;51.710;8.736;2024-01-15T03:16:30;1.40;99.90
54960;DHT22;40860;51.710;8.736;2024-01-15T03:20:33;1.40;99.90
54960;DHT22;40860;51.710;8.736;2024-01-15T03:24:36;1.40;99.90
54960;DHT22;40860;51.710;8.736;2024-01-15T03:28:40;1.40;99.90
54960;DHT22;40860;51.710;8.736;2024-01-15T03:32:43;1.40;99.90
54960;DHT22;40860;51.710;8.736;2024-01-15T03:36:46;1.40;99.90
54960;DHT22;40860;51.710;8.736;2024-01-15T03:40:49;1.40;99.90
54960;DHT22;40860;51.710;8.736;2024-01-15T03:44:53;1.40;99.90
54960;DHT22;40860;51.710;8.736;2024-01-15T03:48:56;1.40;99.90
54960;DHT22;40860;51.710;8.736;2024-01-15T03:52:59;1.40;99.90
54960;DHT22;40860;51.710;8.736;2024-01-15T03:57:02;1.50;99.90
54960;DHT22;40860;51.710;8.736;2024-01-15T04:01:09;1.50;99.90
54960;DHT22;40860;51.710;8.736;2024-01-15T04:05:12;1.50;99.90
54960;DHT22;40860;51.710;8.736;2024-01-15T04:09:15;1.50;99.90
54960;DHT22;40860;51.710;8.736;2024-01-15T04:13:18;1.50;99.90
54960;DHT22;40860;51.710;8.736;2024-01-15T04:17:22;1.50;99.90
54960;DHT22;40860;51.710;8.736;2024-01-15T04:21:25;1.50;99.90
54960;DHT22;40860;51.710;8.736;2024-01-15T04:25:27;1.50;99.90
54960;DHT22;40860;51.710;8.736;2024-01-15T04:29:30;1.50;99.90
54960;DHT22;40860;51.710;8.736;2024-01-15T04:33:34;1.50;99.90
54960;DHT22;40860;51.710;8.736;2024-01-15T04:37:37;1.50;99.90
54960;DHT22;40860;51.710;8.736;2024-01-15T04:41:40;1.50;99.90
54960;DHT22;40860;51.710;8.736;2024-01-15T04:45:43;1.50;99.90
54960;DHT22;40860;51.710;8.736;2024-01-15T04:49:47;1.50;99.90
54960;DHT22;40860;51.710;8.736;2024-01-15T04:53:51;1.50;99.90
54960;DHT22;40860;51.710;8.736;2024-01-15T04:57:57;1.50;99.90
54960;DHT22;40860;51.710;8.736;2024-01-15T05:01:59;1.40;99.90
54960;DHT22;40860;51.710;8.736;2024-01-15T05:06:04;1.40;99.90
54960;DHT22;40860;51.710;8.736;2024-01-15T05:10:07;1.40;99.90
54960;DHT22;40860;51.710;8.736;2024-01-15T05:14:10;1.40;99.90
54960;DHT22;40860;51.710;8.736;2024-01-15T05:18:13;1.30;99.90
54960;DHT22;40860;51.710;8.736;2024-01-15T05:22:17;1.40;99.90
54960;DHT22;40860;51.710;8.736;2024-01-15T05:26:20;1.30;99.90
54960;DHT22;40860;51.710;8.736;2024-01-15T05:30:23;1.30;99.90
54960;DHT22;40860;51.710;8.736;2024-01-15T05:34:26;1.30;99.90
54960;DHT22;40860;51.710;8.736;2024-01-15T05:38:31;1.40;99.90
54960;DHT22;40860;51.710;8.736;2024-01-15T05:42:33;1.40;99.90
54960;DHT22;40860;51.710;8.736;2024-01-15T05:46:36;1.40;99.90
54960;DHT22;40860;51.710;8.736;2024-01-15T05:50:39;1.40;99.90
54960;DHT22;40860;51.710;8.736;2024-01-15T05:54:43;1.40;99.90
54960;DHT22;40860;51.710;8.736;2024-01-15T05:58:46;1.30;99.90
54960;DHT22;40860;51.710;8.736;2024-01-15T06:02:49;1.30;99.90
54960;DHT22;40860;51.710;8.736;2024-01-15T06:06:52;1.30;99.90
54960;DHT22;40860;51.710;8.736;2024-01-15T06:10:57;1.30;99.90
54960;DHT22;40860;51.710;8.736;2024-01-15T06:15:08;1.20;99.90
54960;DHT22;40860;51.710;8.736;2024-01-15T06:19:31;1.20;99.90
54960;DHT22;40860;51.710;8.736;2024-01-15T06:23:34;1.20;99.90
54960;DHT22;40860;51.710;8.736;2024-01-15T06:27:38;1.20;99.90
54960;DHT22;40860;51.710;8.736;2024-01-15T06:31:41;1.20;99.90
54960;DHT22;40860;51.710;8.736;2024-01-15T06:35:44;1.10;99.90
54960;DHT22;40860;51.710;8.736;2024-01-15T06:39:49;1.10;99.90
54960;DHT22;40860;51.710;8.736;2024-01-15T06:43:53;1.10;99.90
54960;DHT22;40860;51.710;8.736;2024-01-15T06:47:57;1.10;99.90
54960;DHT22;40860;51.710;8.736;2024-01-15T06:52:00;1.20;99.90
54960;DHT22;40860;51.710;8.736;2024-01-15T06:56:03;1.20;99.90
54960;DHT22;40860;51.710;8.736;2024-01-15T07:00:08;1.30;99.90
54960;DHT22;40860;51.710;8.736;2024-01-15T07:04:12;1.30;99.90
54960;DHT22;40860;51.710;8.736;2024-01-15T07:08:15;1.30;99.90
54960;DHT22;40860;51.710;8.736;2024-01-15T07:12:18;1.30;99.90
54960;DHT22;40860;51.710;8.736;2024-01-15T07:16:22;1.30;99.90
54960;DHT22;40860;51.710;8.736;2024-01-15T07:20:38;1.30;99.90
54960;DHT22;40860;51.710;8.736;2024-01-15T07:24:41;1.30;99.90
54960;DHT22;40860;51.710;8.736;2024-01-15T07:28:44;1.30;99.90
54960;DHT22;40860;51.710;8.736;2024-01-15T07:32:48;1.30;99.90
54960;DHT22;40860;51.710;8.736;2024-01-15T07:36:51;1.30;99.90
54960;DHT22;40860;51.710;8.736;2024-01-15T07:40:54;1.30;99.90
54960;DHT22;40860;51.710;8.736;2024-01-15T07:44:57;1.30;99.90
54960;DHT22;40860;51.710;8.736;2024-01-15T07:49:01;1.30;99.90
54960;DHT22;40860;51.710;8.736;2024-01-15T07:53:05;1.30;99.90
54960;DHT22;40860;51.710;8.736;2024-01-15T07:57:08;1.40;99.90
54960;DHT22;40860;51.710;8.736;2024-01-15T08:01:11;1.30;99.90
54960;DHT22;40860;51.710;8.736;2024-01-15T08:05:15;1.30;99.90
54960;DHT22;40860;51.710;8.736;2024-01-15T08:09:18;1.30;99.90
54960;DHT22;40860;51.710;8.736;2024-01-15T08:13:21;1.30;99.90
54960;DHT22;40860;51.710;8.736;2024-01-15T08:17:23;1.30;99.90
54960;DHT22;40860;51.710;8.736;2024-01-15T08:21:31;1.30;99.90
54960;DHT22;40860;51.710;8.736;2024-01-15T08:25:34;1.20;99.90
54960;DHT22;40860;51.710;8.736;2024-01-15T08:29:37;1.20;99.90
54960;DHT22;40860;51.710;8.736;2024-01-15T08:33:40;1.10;99.90
54960;DHT22;40860;51.710;8.736;2024-01-15T08:37:44;1.10;99.90
54960;DHT22;40860;51.710;8.736;2024-01-15T08:41:47;1.10;99.90
54960;DHT22;40860;51.710;8.736;2024-01-15T08:45:50;1.10;99.90
54960;DHT22;40860;51.710;8.736;2024-01-15T08:49:53;1.10;99.90
54960;DHT22;40860;51.710;8.736;2024-01-15T08:53:57;1.10;99.90
54960;DHT22;40860;51.710;8.736;2024-01-15T08:58:00;1.10;99.90
54960;DHT22;40860;51.710;8.736;2024-01-15T09:02:03;1.20;99.90
54960;DHT22;40860;51.710;8.736;2024-01-15T09:06:06;1.20;99.90
54960;DHT22;40860;51.710;8.736;2024-01-15T09:10:10;1.20;99.90
54960;DHT22;40860;51.710;8.736;2024-01-15T09:14:13;1.20;99.90
54960;DHT22;40860;51.710;8.736;2024-01-15T09:18:19;1.20;99.90
54960;DHT22;40860;51.710;8.736;2024-01-15T09:22:22;1.20;99.90
54960;DHT22;40860;51.710;8.736;2024-01-15T09:26:26;1.20;99.90
54960;DHT22;40860;51.710;8.736;2024-01-15T09:30:29;1.20;99.90
54960;DHT22;40860;51.710;8.736;2024-01-15T09:34:32;1.30;99.90
54960;DHT22;40860;51.710;8.736;2024-01-15T09:38:35;1.30;99.90
54960;DHT22;40860;51.710;8.736;2024-01-15T09:42:40;1.30;99.90
54960;DHT22;40860;51.710;8.736;2024-01-15T09:46:43;1.30;99.90
54960;DHT22;40860;51.710;8.736;2024-01-15T09:50:46;1.30;99.90
54960;DHT22;40860;51.710;8.736;2024-01-15T09:54:49;1.30;99.90
54960;DHT22;40860;51.710;8.736;2024-01-15T09:58:54;1.30;99.90
54960;DHT22;40860;51.710;8.736;2024-01-15T10:02:59;1.30;99.90
54960;DHT22;40860;51.710;8.736;2024-01-15T10:07:03;1.30;99.90
54960;DHT22;40860;51.710;8.736;2024-01-15T10:11:06;1.30;99.90
54960;DHT22;40860;51.710;8.736;2024-01-15T10:15:11;1.30;99.90
54960;DHT22;40860;51.710;8.736;2024-01-15T10:19:14;1.30;99.90
54960;DHT22;40860;51.710;8.736;2024-01-15T10:23:17;1.40;99.90
54960;DHT22;40860;51.710;8.736;2024-01-15T10:27:20;1.40;99.90
54960;DHT22;40860;51.710;8.736;2024-01-15T10:31:25;1.40;99.90
54960;DHT22;40860;51.710;8.736;2024-01-15T10:35:33;1.40;99.90
54960;DHT22;40860;51.710;8.736;2024-01-15T10:39:36;1.40;99.90
54960;DHT22;40860;51.710;8.736;2024-01-15T10:43:40;1.50;99.90
54960;DHT22;40860;51.710;8.736;2024-01-15T10:47:45;1.50;99.90
54960;DHT22;40860;51.710;8.736;2024-01-15T10:51:48;1.50;99.90
54960;DHT22;40860;51.710;8.736;2024-01-15T10:55:52;1.50;99.90
54960;DHT22;40860;51.710;8.736;2024-01-15T10:59:55;1.50;99.90
54960;DHT22;40860;51.710;8.736;2024-01-15T11:04:01;1.50;99.90
54960;DHT22;40860;51.710;8.736;2024-01-15T11:08:06;1.50;99.90
54960;DHT22;40860;51.710;8.736;2024-01-15T11:12:11;1.50;99.90
54960;DHT22;40860;51.710;8.736;2024-01-15T11:16:14;1.60;99.90
54960;DHT22;40860;51.710;8.736;2024-01-15T11:20:18;1.60;99.90
54960;DHT22;40860;51.710;8.736;2024-01-15T11:24:35;1.60;99.90
54960;DHT22;40860;51.710;8.736;2024-01-15T11:28:48;1.60;99.90
54960;DHT22;40860;51.710;8.736;2024-01-15T11:32:50;1.60;99.90
54960;DHT22;40860;51.710;8.736;2024-01-15T11:37:04;1.60;99.90
54960;DHT22;40860;51.710;8.736;2024-01-15T11:41:13;1.60;99.90
54960;DHT22;40860;51.710;8.736;2024-01-15T11:45:19;1.60;99.90
54960;DHT22;40860;51.710;8.736;2024-01-15T11:49:30;1.60;99.90
54960;DHT22;40860;51.710;8.736;2024-01-15T11:53:45;1.70;99.90
54960;DHT22;40860;51.710;8.736;2024-01-15T11:57:51;1.70;99.90
54960;DHT22;40860;51.710;8.736;2024-01-15T12:01:54;1.70;99.90
54960;DHT22;40860;51.710;8.736;2024-01-15T12:05:57;1.60;99.90
54960;DHT22;40860;51.710;8.736;2024-01-15T12:10:03;1.60;99.90
54960;DHT22;40860;51.710;8.736;2024-01-15T12:14:10;1.60;99.90
54960;DHT22;40860;51.710;8.736;2024-01-15T12:18:14;1.50;99.90
54960;DHT22;40860;51.710;8.736;2024-01-15T12:22:18;1.50;99.90
54960;DHT22;40860;51.710;8.736;2024-01-15T12:26:22;1.60;99.90
54960;DHT22;40860;51.710;8.736;2024-01-15T12:30:25;1.60;99.90
54960;DHT22;40860;51.710;8.736;2024-01-15T12:34:29;1.60;99.90
54960;DHT22;40860;51.710;8.736;2024-01-15T12:38:32;1.70;99.90
54960;DHT22;40860;51.710;8.736;2024-01-15T12:42:36;1.70;99.90
54960;DHT22;40860;51.710;8.736;2024-01-15T12:46:40;1.70;99.90
54960;DHT22;40860;51.710;8.736;2024-01-15T12:50:43;1.60;99.90
54960;DHT22;40860;51.710;8.736;2024-01-15T12:54:47;1.60;99.90
54960;DHT22;40860;51.710;8.736;2024-01-15T12:58:52;1.60;99.90
54960;DHT22;40860;51.710;8.736;2024-01-15T13:02:54;1.60;99.90
54960;DHT22;40860;51.710;8.736;2024-01-15T13:06:59;1.60;99.90
54960;DHT22;40860;51.710;8.736;2024-01-15T13:11:02;1.60;99.90
54960;DHT22;40860;51.710;8.736;2024-01-15T13:15:06;1.60;99.90
54960;DHT22;40860;51.710;8.736;2024-01-15T13:19:14;1.60;99.90
54960;DHT22;40860;51.710;8.736;2024-01-15T13:23:17;1.60;99.90
54960;DHT22;40860;51.710;8.736;2024-01-15T13:27:20;1.60;99.90
54960;DHT22;40860;51.710;8.736;2024-01-15T13:31:24;1.60;99.90
54960;DHT22;40860;51.710;8.736;2024-01-15T13:35:27;1.60;99.90
54960;DHT22;40860;51.710;8.736;2024-01-15T13:39:30;1.60;99.90
54960;DHT22;40860;51.710;8.736;2024-01-15T13:43:34;1.60;99.90
54960;DHT22;40860;51.710;8.736;2024-01-15T13:47:39;1.60;99.90
54960;DHT22;40860;51.710;8.736;2024-01-15T13:51:42;1.60;99.90
54960;DHT22;40860;51.710;8.736;2024-01-15T13:55:44;1.60;99.90
54960;DHT22;40860;51.710;8.736;2024-01-15T13:59:47;1.60;99.90
54960;DHT22;40860;51.710;8.736;2024-01-15T14:03:52;1.60;99.90
54960;DHT22;40860;51.710;8.736;2024-01-15T14:07:55;1.60;99.90
54960;DHT22;40860;51.710;8.736;2024-01-15T14:11:58;1.50;99.90
54960;DHT22;40860;51.710;8.736;2024-01-15T14:16:01;1.50;99.90
54960;DHT22;40860;51.710;8.736;2024-01-15T14:20:07;1.50;99.90
54960;DHT22;40860;51.710;8.736;2024-01-15T14:24:11;1.40;99.90
54960;DHT22;40860;51.710;8.736;2024-01-15T14:28:14;1.40;99.90
54960;DHT22;40860;51.710;8.736;2024-01-15T14:32:17;1.40;99.90
54960;DHT22;40860;51.710;8.736;2024-01-15T14:36:21;1.40;99.90
54960;DHT22;40860;51.710;8.736;2024-01-15T14:40:26;1.40;99.90
54960;DHT22;40860;51.710;8.736;2024-01-15T14:44:29;1.40;99.90
54960;DHT22;40860;51.710;8.736;2024-01-15T14:48:32;1.40;99.90
54960;DHT22;40860;51.710;8.736;2024-01-15T14:52:37;1.40;99.90
54960;DHT22;40860;51.710;8.736;2024-01-15T14:56:40;1.40;99.90
54960;DHT22;40860;51.710;8.736;2024-01-15T15:00:45;1.40;99.90
54960;DHT22;40860;51.710;8.736;2024-01-15T15:04:49;1.40;99.90
54960;DHT22;40860;51.710;8.736;2024-01-15T15:08:53;1.40;99.90
54960;DHT22;40860;51.710;8.736;2024-01-15T15:12:59;1.40;99.90
54960;DHT22;40860;51.710;8.736;2024-01-15T15:17:03;1.40;99.90
54960;DHT22;40860;51.710;8.736;2024-01-15T15:21:05;1.50;99.90
54960;DHT22;40860;51.710;8.736;2024-01-15T15:25:11;1.40;99.90
54960;DHT22;40860;51.710;8.736;2024-01-15T15:29:14;1.40;99.90
54960;DHT22;40860;51.710;8.736;2024-01-15T15:33:19;1.40;99.90
54960;DHT22;40860;51.710;8.736;2024-01-15T15:37:22;1.40;99.90
54960;DHT22;40860;51.710;8.736;2024-01-15T15:41:27;1.40;99.90
54960;DHT22;40860;51.710;8.736;2024-01-15T15:45:30;1.50;99.90
54960;DHT22;40860;51.710;8.736;2024-01-15T15:49:34;1.40;99.90
54960;DHT22;40860;51.710;8.736;2024-01-15T15:53:37;1.40;99.90
54960;DHT22;40860;51.710;8.736;2024-01-15T15:57:41;1.40;99.90
54960;DHT22;40860;51.710;8.736;2024-01-15T16:01:45;1.30;99.90
54960;DHT22;40860;51.710;8.736;2024-01-15T16:05:48;1.30;99.90
54960;DHT22;40860;51.710;8.736;2024-01-15T16:09:54;1.30;99.90
54960;DHT22;40860;51.710;8.736;2024-01-15T16:13:58;1.30;99.90
54960;DHT22;40860;51.710;8.736;2024-01-15T16:18:05;1.30;99.90
54960;DHT22;40860;51.710;8.736;2024-01-15T16:22:28;1.30;99.90
54960;DHT22;40860;51.710;8.736;2024-01-15T16:26:50;1.30;99.90
54960;DHT22;40860;51.710;8.736;2024-01-15T16:30:55;1.30;99.90
54960;DHT22;40860;51.710;8.736;2024-01-15T16:35:06;1.30;99.90
54960;DHT22;40860;51.710;8.736;2024-01-15T16:39:09;1.20;99.90
54960;DHT22;40860;51.710;8.736;2024-01-15T16:43:12;1.20;99.90
54960;DHT22;40860;51.710;8.736;2024-01-15T16:47:16;1.20;99.90
54960;DHT22;40860;51.710;8.736;2024-01-15T16:51:19;1.20;99.90
54960;DHT22;40860;51.710;8.736;2024-01-15T16:55:22;1.20;99.90
54960;DHT22;40860;51.710;8.736;2024-01-15T16:59:25;1.20;99.90
54960;DHT22;40860;51.710;8.736;2024-01-15T17:03:29;1.20;99.90
54960;DHT22;40860;51.710;8.736;2024-01-15T17:07:32;1.20;99.90
54960;DHT22;40860;51.710;8.736;2024-01-15T17:11:34;1.10;99.90
54960;DHT22;40860;51.710;8.736;2024-01-15T17:15:38;1.10;99.90
54960;DHT22;40860;51.710;8.736;2024-01-15T17:19:42;1.10;99.90
54960;DHT22;40860;51.710;8.736;2024-01-15T17:23:45;1.10;99.90
54960;DHT22;40860;51.710;8.736;2024-01-15T17:27:48;1.10;99.90
54960;DHT22;40860;51.710;8.736;2024-01-15T17:31:51;1.10;99.90
54960;DHT22;40860;51.710;8.736;2024-01-15T17:35:56;1.10;99.90
54960;DHT22;40860;51.710;8.736;2024-01-15T17:40:00;1.00;99.90
54960;DHT22;40860;51.710;8.736;2024-01-15T17:44:07;1.10;99.90
54960;DHT22;40860;51.710;8.736;2024-01-15T17:48:10;1.10;99.90
54960;DHT22;40860;51.710;8.736;2024-01-15T17:52:15;1.10;99.90
54960;DHT22;40860;51.710;8.736;2024-01-15T17:56:19;1.00;99.90
54960;DHT22;40860;51.710;8.736;2024-01-15T18:00:22;1.10;99.90
54960;DHT22;40860;51.710;8.736;2024-01-15T18:04:24;1.10;99.90
54960;DHT22;40860;51.710;8.736;2024-01-15T18:08:29;1.10;99.90
54960;DHT22;40860;51.710;8.736;2024-01-15T18:12:35;1.10;99.90
54960;DHT22;40860;51.710;8.736;2024-01-15T18:16:38;1.10;99.90
54960;DHT22;40860;51.710;8.736;2024-01-15T18:20:41;1.20;99.90
54960;DHT22;40860;51.710;8.736;2024-01-15T18:24:48;1.10;99.90
54960;DHT22;40860;51.710;8.736;2024-01-15T18:28:51;1.20;99.90
54960;DHT22;40860;51.710;8.736;2024-01-15T18:32:54;1.20;99.90
54960;DHT22;40860;51.710;8.736;2024-01-15T18:36:57;1.20;99.90
54960;DHT22;40860;51.710;8.736;2024-01-15T18:41:01;1.20;99.90
54960;DHT22;40860;51.710;8.736;2024-01-15T18:45:06;1.20;99.90
54960;DHT22;40860;51.710;8.736;2024-01-15T18:49:09;1.20;99.90
54960;DHT22;40860;51.710;8.736;2024-01-15T18:53:13;1.20;99.90
54960;DHT22;40860;51.710;8.736;2024-01-15T19:02:25;1.20;99.90
54960;DHT22;40860;51.710;8.736;2024-01-15T19:06:34;1.10;99.90
54960;DHT22;40860;51.710;8.736;2024-01-15T19:10:39;1.10;99.90
54960;DHT22;40860;51.710;8.736;2024-01-15T19:19:11;1.00;99.90
54960;DHT22;40860;51.710;8.736;2024-01-15T19:23:17;1.00;99.90
54960;DHT22;40860;51.710;8.736;2024-01-15T19:27:20;1.00;99.90
54960;DHT22;40860;51.710;8.736;2024-01-15T19:31:24;1.00;99.90
54960;DHT22;40860;51.710;8.736;2024-01-15T19:35:31;1.00;99.90
54960;DHT22;40860;51.710;8.736;2024-01-15T19:39:34;1.10;99.90
54960;DHT22;40860;51.710;8.736;2024-01-15T19:43:38;1.10;99.90
54960;DHT22;40860;51.710;8.736;2024-01-15T19:47:41;1.10;99.90
54960;DHT22;40860;51.710;8.736;2024-01-15T19:51:45;1.20;99.90
54960;DHT22;40860;51.710;8.736;2024-01-15T19:55:48;1.20;99.90
54960;DHT22;40860;51.710;8.736;2024-01-15T19:59:51;1.20;99.90
54960;DHT22;40860;51.710;8.736;2024-01-15T20:03:56;1.20;99.90
54960;DHT22;40860;51.710;8.736;2024-01-15T20:08:00;1.10;99.90
54960;DHT22;40860;51.710;8.736;2024-01-15T20:12:06;1.20;99.90
54960;DHT22;40860;51.710;8.736;2024-01-15T20:16:12;1.20;99.90
54960;DHT22;40860;51.710;8.736;2024-01-15T20:20:19;1.20;99.90
54960;DHT22;40860;51.710;8.736;2024-01-15T20:24:27;1.20;99.90
54960;DHT22;40860;51.710;8.736;2024-01-15T20:28:31;1.20;99.90
54960;DHT22;40860;51.710;8.736;2024-01-15T20:32:35;1.20;99.90
54960;DHT22;40860;51.710;8.736;2024-01-15T20:36:39;1.20;99.90
54960;DHT22;40860;51.710;8.736;2024-01-15T20:40:43;1.20;99.90
54960;DHT22;40860;51.710;8.736;2024-01-15T20:44:49;1.20;99.90
54960;DHT22;40860;51.710;8.736;2024-01-15T20:48:57;1.20;99.90
54960;DHT22;40860;51.710;8.736;2024-01-15T20:53:00;1.30;99.90
54960;DHT22;40860;51.710;8.736;2024-01-15T20:57:05;1.20;99.90
54960;DHT22;40860;51.710;8.736;2024-01-15T21:01:08;1.20;99.90
54960;DHT22;40860;51.710;8.736;2024-01-15T21:05:11;1.20;99.90
54960;DHT22;40860;51.710;8.736;2024-01-15T21:09:14;1.30;99.90
54960;DHT22;40860;51.710;8.736;2024-01-15T21:13:18;1.30;99.90
54960;DHT22;40860;51.710;8.736;2024-01-15T21:17:21;1.30;99.90
54960;DHT22;40860;51.710;8.736;2024-01-15T21:21:25;1.30;99.90
54960;DHT22;40860;51.710;8.736;2024-01-15T21:25:28;1.30;99.90
54960;DHT22;40860;51.710;8.736;2024-01-15T21:29:35;1.30;99.90
54960;DHT22;40860;51.710;8.736;2024-01-15T21:33:38;1.30;99.90
54960;DHT22;40860;51.710;8.736;2024-01-15T21:37:45;1.40;99.90
54960;DHT22;40860;51.710;8.736;2024-01-15T21:41:48;1.30;99.90
54960;DHT22;40860;51.710;8.736;2024-01-15T21:45:52;1.40;99.90
54960;DHT22;40860;51.710;8.736;2024-01-15T21:49:55;1.40;99.90
54960;DHT22;40860;51.710;8.736;2024-01-15T21:54:00;1.40;99.90
54960;DHT22;40860;51.710;8.736;2024-01-15T21:58:03;1.40;99.90
54960;DHT22;40860;51.710;8.736;2024-01-15T22:02:07;1.40;99.90
54960;DHT22;40860;51.710;8.736;2024-01-15T22:06:11;1.40;99.90
54960;DHT22;40860;51.710;8.736;2024-01-15T22:10:15;1.40;99.90
54960;DHT22;40860;51.710;8.736;2024-01-15T22:14:18;1.40;99.90
54960;DHT22;40860;51.710;8.736;2024-01-15T22:18:23;1.40;99.90
54960;DHT22;40860;51.710;8.736;2024-01-15T22:22:26;1.40;99.90
54960;DHT22;40860;51.710;8.736;2024-01-15T22:26:29;1.40;99.90
54960;DHT22;40860;51.710;8.736;2024-01-15T22:30:39;1.40;99.90
54960;DHT22;40860;51.710;8.736;2024-01-15T22:34:51;1.30;99.90
54960;DHT22;40860;51.710;8.736;2024-01-15T22:38:55;1.30;99.90
54960;DHT22;40860;51.710;8.736;2024-01-15T22:43:08;1.30;99.90
54960;DHT22;40860;51.710;8.736;2024-01-15T22:47:16;1.20;99.90
54960;DHT22;40860;51.710;8.736;2024-01-15T22:51:27;1.30;99.90
54960;DHT22;40860;51.710;8.736;2024-01-15T22:55:40;1.30;99.90
54960;DHT22;40860;51.710;8.736;2024-01-15T22:59:43;1.30;99.90
54960;DHT22;40860;51.710;8.736;2024-01-15T23:03:46;1.30;99.90
54960;DHT22;40860;51.710;8.736;2024-01-15T23:07:51;1.30;99.90
54960;DHT22;40860;51.710;8.736;2024-01-15T23:11:54;1.30;99.90
54960;DHT22;40860;51.710;8.736;2024-01-15T23:15:57;1.30;99.90
54960;DHT22;40860;51.710;8.736;2024-01-15T23:20:00;1.30;99.90
54960;DHT22;40860;51.710;8.736;2024-01-15T23:24:05;1.30;99.90
54960;DHT22;40860;51.710;8.736;2024-01-15T23:28:09;1.30;99.90
54960;DHT22;40860;51.710;8.736;2024-01-15T23:32:12;1.30;99.90
54960;DHT22;40860;51.710;8.736;2024-01-15T23:36:15;1.30;99.90
54960;DHT22;40860;51.710;8.736;2024-01-15T23:40:19;1.30;99.90
54960;DHT22;40860;51.710;8.736;2024-01-15T23:44:22;1.30;99.90
54960;DHT22;40860;51.710;8.736;2024-01-15T23:48:24;1.30;99.90
54960;DHT22;40860;51.710;8.736;2024-01-15T23:52:27;1.30;99.90
54960;DHT22;40860;51.710;8.736;2024-01-15T23:56:31;1.20;99.90
